sensor_id;sensor_type;location;lat;lon;timestamp;pressure;altitude;pressure_sealevel;temperature;humidity
65606;BME280;52276;48.906;2.384;2023-03-03T00:00:48;88103.997802734;;;8.5;42.7
65606;BME280;52276;48.906;2.384;2023-03-03T00:01:48;88103.997802734;;;8.5;42.7
65606;BME280;52276;48.906;2.384;2023-03-03T00:02:48;88103.997802734;;;8.5;42.8
65606;BME280;52276;48.906;2.384;2023-03-03T00:03:48;88103.997802734;;;8.5;42.8
65606;BME280;52276;48.906;2.384;2023-03-03T00:04:48;88103.997802734;;;8.5;42.8
65606;BME280;52276;48.906;2.384;2023-03-03T00:05:48;88103.997802734;;;8.5;42.7
65606;BME280;52276;48.906;2.384;2023-03-03T00:06:48;88103.997802734;;;8.4;42.6
65606;BME280;52276;48.906;2.384;2023-03-03T00:07:48;88103.997802734;;;8.4;42.6
65606;BME280;52276;48.906;2.384;2023-03-03T00:08:48;88103.997802734;;;8.4;42.7
65606;BME280;52276;48.906;2.384;2023-03-03T00:09:48;88103.997802734;;;8.4;42.7
65606;BME280;52276;48.906;2.384;2023-03-03T00:10:48;88103.997802734;;;8.4;41.5
65606;BME280;52276;48.906;2.384;2023-03-03T00:11:49;88103.997802734;;;8.4;42.8
65606;BME280;52276;48.906;2.384;2023-03-03T00:12:48;88103.997802734;;;8.4;42.9
65606;BME280;52276;48.906;2.384;2023-03-03T00:13:49;88103.997802734;;;8.4;42.9
65606;BME280;52276;48.906;2.384;2023-03-03T00:14:48;88103.997802734;;;8.4;43
65606;BME280;52276;48.906;2.384;2023-03-03T00:15:48;88103.997802734;;;8.3;43
65606;BME280;52276;48.906;2.384;2023-03-03T00:16:48;88103.997802734;;;8.3;42.9
65606;BME280;52276;48.906;2.384;2023-03-03T00:17:48;88103.997802734;;;8.3;43
65606;BME280;52276;48.906;2.384;2023-03-03T00:18:49;88103.997802734;;;8.3;43
65606;BME280;52276;48.906;2.384;2023-03-03T00:19:48;88103.997802734;;;8.3;43
65606;BME280;52276;48.906;2.384;2023-03-03T00:20:49;88103.997802734;;;8.3;43
65606;BME280;52276;48.906;2.384;2023-03-03T00:21:49;88103.997802734;;;8.3;43.1
65606;BME280;52276;48.906;2.384;2023-03-03T00:22:48;88103.997802734;;;8.3;43.2
65606;BME280;52276;48.906;2.384;2023-03-03T00:23:48;88103.997802734;;;8.3;43.2
65606;BME280;52276;48.906;2.384;2023-03-03T00:24:48;88103.997802734;;;8.3;43.3
65606;BME280;52276;48.906;2.384;2023-03-03T00:25:49;88103.997802734;;;8.2;43.2
65606;BME280;52276;48.906;2.384;2023-03-03T00:26:49;88103.997802734;;;8.3;43.3
65606;BME280;52276;48.906;2.384;2023-03-03T00:27:48;88103.997802734;;;8.2;43.2
65606;BME280;52276;48.906;2.384;2023-03-03T00:28:49;88103.997802734;;;8.2;43.1
65606;BME280;52276;48.906;2.384;2023-03-03T00:29:49;88103.997802734;;;8.2;43.2
65606;BME280;52276;48.906;2.384;2023-03-03T00:30:49;88103.997802734;;;8.2;43.2
65606;BME280;52276;48.906;2.384;2023-03-03T00:31:48;88103.997802734;;;8.2;43.1
65606;BME280;52276;48.906;2.384;2023-03-03T00:32:48;88103.997802734;;;8.2;43.1
65606;BME280;52276;48.906;2.384;2023-03-03T00:33:49;88103.997802734;;;8.1;43
65606;BME280;52276;48.906;2.384;2023-03-03T00:34:49;88103.997802734;;;8.2;43.2
65606;BME280;52276;48.906;2.384;2023-03-03T00:35:48;88103.997802734;;;8.1;43
65606;BME280;52276;48.906;2.384;2023-03-03T00:36:49;88103.997802734;;;8.1;43.1
65606;BME280;52276;48.906;2.384;2023-03-03T00:37:49;88103.997802734;;;8.1;43.2
65606;BME280;52276;48.906;2.384;2023-03-03T00:38:48;88103.997802734;;;8.1;43.3
65606;BME280;52276;48.906;2.384;2023-03-03T00:39:48;88103.997802734;;;8.1;43.3
65606;BME280;52276;48.906;2.384;2023-03-03T00:40:48;88103.997802734;;;8.1;43.4
65606;BME280;52276;48.906;2.384;2023-03-03T00:41:48;88103.997802734;;;8.1;43.6
65606;BME280;52276;48.906;2.384;2023-03-03T00:42:49;88103.997802734;;;8.1;43.6
65606;BME280;52276;48.906;2.384;2023-03-03T00:43:49;88103.997802734;;;8.1;43.6
65606;BME280;52276;48.906;2.384;2023-03-03T00:44:52;88103.997802734;;;8;43.6
65606;BME280;52276;48.906;2.384;2023-03-03T00:45:49;88103.997802734;;;8;43.7
65606;BME280;52276;48.906;2.384;2023-03-03T00:46:48;88103.997802734;;;8;43.7
65606;BME280;52276;48.906;2.384;2023-03-03T00:47:48;88103.997802734;;;8;43.7
65606;BME280;52276;48.906;2.384;2023-03-03T00:48:49;88103.997802734;;;8;43.8
65606;BME280;52276;48.906;2.384;2023-03-03T00:49:48;88103.997802734;;;8;43.8
65606;BME280;52276;48.906;2.384;2023-03-03T00:50:49;88103.997802734;;;8;43.8
65606;BME280;52276;48.906;2.384;2023-03-03T00:51:48;88103.997802734;;;8;43.9
65606;BME280;52276;48.906;2.384;2023-03-03T00:52:52;88103.997802734;;;8;43.8
65606;BME280;52276;48.906;2.384;2023-03-03T00:53:49;88103.997802734;;;8;44
65606;BME280;52276;48.906;2.384;2023-03-03T00:54:48;88103.997802734;;;8;43.8
65606;BME280;52276;48.906;2.384;2023-03-03T00:55:49;88103.997802734;;;8;44.1
65606;BME280;52276;48.906;2.384;2023-03-03T00:56:48;88103.997802734;;;8;44.1
65606;BME280;52276;48.906;2.384;2023-03-03T00:57:48;88103.997802734;;;8;44.1
65606;BME280;52276;48.906;2.384;2023-03-03T00:58:49;88103.997802734;;;8;44.2
65606;BME280;52276;48.906;2.384;2023-03-03T00:59:48;88103.997802734;;;8;44.1
65606;BME280;52276;48.906;2.384;2023-03-03T01:00:49;88103.997802734;;;8;44.2
65606;BME280;52276;48.906;2.384;2023-03-03T01:01:48;88103.997802734;;;8;44.2
65606;BME280;52276;48.906;2.384;2023-03-03T01:02:48;88103.997802734;;;8;44.2
65606;BME280;52276;48.906;2.384;2023-03-03T01:03:48;88103.997802734;;;7.9;44.2
65606;BME280;52276;48.906;2.384;2023-03-03T01:04:49;88103.997802734;;;8;44.2
65606;BME280;52276;48.906;2.384;2023-03-03T01:05:49;88103.997802734;;;7.9;44.1
65606;BME280;52276;48.906;2.384;2023-03-03T01:06:48;88103.997802734;;;7.9;44.1
65606;BME280;52276;48.906;2.384;2023-03-03T01:07:48;88103.997802734;;;7.9;44.2
65606;BME280;52276;48.906;2.384;2023-03-03T01:08:49;88103.997802734;;;7.9;44.2
65606;BME280;52276;48.906;2.384;2023-03-03T01:09:48;88103.997802734;;;7.9;44.2
65606;BME280;52276;48.906;2.384;2023-03-03T01:10:50;88103.997802734;;;7.9;44.1
65606;BME280;52276;48.906;2.384;2023-03-03T01:11:49;88103.997802734;;;7.9;44.2
65606;BME280;52276;48.906;2.384;2023-03-03T01:12:48;88103.997802734;;;7.9;44.1
65606;BME280;52276;48.906;2.384;2023-03-03T01:13:49;88103.997802734;;;7.9;44.2
65606;BME280;52276;48.906;2.384;2023-03-03T01:14:48;88103.997802734;;;7.9;44.2
65606;BME280;52276;48.906;2.384;2023-03-03T01:15:48;88103.997802734;;;7.9;44.2
65606;BME280;52276;48.906;2.384;2023-03-03T01:16:48;88103.997802734;;;7.9;44.2
65606;BME280;52276;48.906;2.384;2023-03-03T01:17:49;88103.997802734;;;7.9;44.3
65606;BME280;52276;48.906;2.384;2023-03-03T01:18:49;88103.997802734;;;7.9;44.3
65606;BME280;52276;48.906;2.384;2023-03-03T01:19:48;88103.997802734;;;7.9;44.3
65606;BME280;52276;48.906;2.384;2023-03-03T01:20:48;88103.997802734;;;7.9;44.4
65606;BME280;52276;48.906;2.384;2023-03-03T01:21:48;88103.997802734;;;7.9;44.4
65606;BME280;52276;48.906;2.384;2023-03-03T01:22:48;88103.997802734;;;7.9;44.4
65606;BME280;52276;48.906;2.384;2023-03-03T01:23:48;88103.997802734;;;7.8;44.3
65606;BME280;52276;48.906;2.384;2023-03-03T01:24:48;88103.997802734;;;7.8;44.2
65606;BME280;52276;48.906;2.384;2023-03-03T01:25:48;88103.997802734;;;7.8;44.2
65606;BME280;52276;48.906;2.384;2023-03-03T01:26:48;88103.997802734;;;7.8;44.3
65606;BME280;52276;48.906;2.384;2023-03-03T01:27:49;88103.997802734;;;7.8;44.3
65606;BME280;52276;48.906;2.384;2023-03-03T01:28:48;88103.997802734;;;7.8;44.3
65606;BME280;52276;48.906;2.384;2023-03-03T01:29:48;88103.997802734;;;7.7;44.3
65606;BME280;52276;48.906;2.384;2023-03-03T01:30:48;88103.997802734;;;7.8;44.4
65606;BME280;52276;48.906;2.384;2023-03-03T01:31:48;88103.997802734;;;7.7;44.4
65606;BME280;52276;48.906;2.384;2023-03-03T01:32:49;88103.997802734;;;7.7;44.5
65606;BME280;52276;48.906;2.384;2023-03-03T01:33:49;88103.997802734;;;7.7;44.6
65606;BME280;52276;48.906;2.384;2023-03-03T01:34:48;88103.997802734;;;7.7;44.6
65606;BME280;52276;48.906;2.384;2023-03-03T01:35:48;88103.997802734;;;7.7;44.7
65606;BME280;52276;48.906;2.384;2023-03-03T01:36:48;88103.997802734;;;7.7;44.6
65606;BME280;52276;48.906;2.384;2023-03-03T01:37:48;88103.997802734;;;7.7;44.7
65606;BME280;52276;48.906;2.384;2023-03-03T01:38:49;88103.997802734;;;7.7;42.7
65606;BME280;52276;48.906;2.384;2023-03-03T01:39:49;88103.997802734;;;7.7;44.8
65606;BME280;52276;48.906;2.384;2023-03-03T01:40:51;88103.997802734;;;7.7;44.9
65606;BME280;52276;48.906;2.384;2023-03-03T01:41:49;88103.997802734;;;7.7;44.9
65606;BME280;52276;48.906;2.384;2023-03-03T01:42:49;88103.997802734;;;7.7;45
65606;BME280;52276;48.906;2.384;2023-03-03T01:43:49;88103.997802734;;;7.7;44.9
65606;BME280;52276;48.906;2.384;2023-03-03T01:45:06;88103.997802734;;;7.6;44.9
65606;BME280;52276;48.906;2.384;2023-03-03T01:46:51;88103.997802734;;;7.6;45
65606;BME280;52276;48.906;2.384;2023-03-03T01:46:52;88103.997802734;;;7.6;45
65606;BME280;52276;48.906;2.384;2023-03-03T01:47:53;88103.997802734;;;7.7;45.1
65606;BME280;52276;48.906;2.384;2023-03-03T01:48:49;88103.997802734;;;7.6;45
65606;BME280;52276;48.906;2.384;2023-03-03T01:49:50;88103.997802734;;;7.6;45.1
65606;BME280;52276;48.906;2.384;2023-03-03T01:50:49;88103.997802734;;;7.6;43.8
65606;BME280;52276;48.906;2.384;2023-03-03T01:51:50;88103.997802734;;;7.6;45.1
65606;BME280;52276;48.906;2.384;2023-03-03T01:52:49;88103.997802734;;;7.6;45.2
65606;BME280;52276;48.906;2.384;2023-03-03T01:53:49;88103.997802734;;;7.6;45.2
65606;BME280;52276;48.906;2.384;2023-03-03T01:54:49;88103.997802734;;;7.6;45.3
65606;BME280;52276;48.906;2.384;2023-03-03T01:55:49;88103.997802734;;;7.6;45.3
65606;BME280;52276;48.906;2.384;2023-03-03T01:56:49;88103.997802734;;;7.6;45.4
65606;BME280;52276;48.906;2.384;2023-03-03T01:57:51;88103.997802734;;;7.6;45.3
65606;BME280;52276;48.906;2.384;2023-03-03T01:58:50;88103.997802734;;;7.6;45.4
65606;BME280;52276;48.906;2.384;2023-03-03T01:59:49;88103.997802734;;;7.6;45.5
65606;BME280;52276;48.906;2.384;2023-03-03T02:00:49;88103.997802734;;;7.6;43.9
65606;BME280;52276;48.906;2.384;2023-03-03T02:01:49;88103.997802734;;;7.6;45.5
65606;BME280;52276;48.906;2.384;2023-03-03T02:02:49;88103.997802734;;;7.5;45.5
65606;BME280;52276;48.906;2.384;2023-03-03T02:03:49;88103.997802734;;;7.5;45.5
65606;BME280;52276;48.906;2.384;2023-03-03T02:04:49;88103.997802734;;;7.5;45.5
65606;BME280;52276;48.906;2.384;2023-03-03T02:05:49;88103.997802734;;;7.5;45.5
65606;BME280;52276;48.906;2.384;2023-03-03T02:06:50;88103.997802734;;;7.5;45.6
65606;BME280;52276;48.906;2.384;2023-03-03T02:07:49;88103.997802734;;;7.5;45.6
65606;BME280;52276;48.906;2.384;2023-03-03T02:08:50;88103.997802734;;;7.5;45.7
65606;BME280;52276;48.906;2.384;2023-03-03T02:09:50;88103.997802734;;;7.5;45.6
65606;BME280;52276;48.906;2.384;2023-03-03T02:10:49;88103.997802734;;;7.5;45.6
65606;BME280;52276;48.906;2.384;2023-03-03T02:11:49;88103.997802734;;;7.5;45.6
65606;BME280;52276;48.906;2.384;2023-03-03T02:12:49;88103.997802734;;;7.5;45.8
65606;BME280;52276;48.906;2.384;2023-03-03T02:13:49;88103.997802734;;;7.5;45.7
65606;BME280;52276;48.906;2.384;2023-03-03T02:14:49;88103.997802734;;;7.5;45.7
65606;BME280;52276;48.906;2.384;2023-03-03T02:15:49;88103.997802734;;;7.5;45.8
65606;BME280;52276;48.906;2.384;2023-03-03T02:16:49;88103.997802734;;;7.4;45.8
65606;BME280;52276;48.906;2.384;2023-03-03T02:17:49;88103.997802734;;;7.4;45.8
65606;BME280;52276;48.906;2.384;2023-03-03T02:18:49;88103.997802734;;;7.4;45.8
65606;BME280;52276;48.906;2.384;2023-03-03T02:19:51;88103.997802734;;;7.4;46
65606;BME280;52276;48.906;2.384;2023-03-03T02:20:51;88103.997802734;;;7.4;46
65606;BME280;52276;48.906;2.384;2023-03-03T02:21:49;88103.997802734;;;7.4;46
65606;BME280;52276;48.906;2.384;2023-03-03T02:22:50;88103.997802734;;;7.4;45.4
65606;BME280;52276;48.906;2.384;2023-03-03T02:23:49;88103.997802734;;;7.4;45.9
65606;BME280;52276;48.906;2.384;2023-03-03T02:24:50;88103.997802734;;;7.4;46
65606;BME280;52276;48.906;2.384;2023-03-03T02:25:51;88103.997802734;;;7.4;46.1
65606;BME280;52276;48.906;2.384;2023-03-03T02:26:49;88103.997802734;;;7.4;46
65606;BME280;52276;48.906;2.384;2023-03-03T02:27:49;88103.997802734;;;7.4;46.1
65606;BME280;52276;48.906;2.384;2023-03-03T02:28:49;88103.997802734;;;7.4;46.1
65606;BME280;52276;48.906;2.384;2023-03-03T02:29:49;88103.997802734;;;7.4;46.2
65606;BME280;52276;48.906;2.384;2023-03-03T02:30:49;88103.997802734;;;7.4;46.2
65606;BME280;52276;48.906;2.384;2023-03-03T02:31:49;88103.997802734;;;7.4;46.2
65606;BME280;52276;48.906;2.384;2023-03-03T02:32:49;88103.997802734;;;7.4;46.2
65606;BME280;52276;48.906;2.384;2023-03-03T02:33:49;88103.997802734;;;7.4;46.3
65606;BME280;52276;48.906;2.384;2023-03-03T02:34:49;88103.997802734;;;7.4;46.3
65606;BME280;52276;48.906;2.384;2023-03-03T02:35:49;88103.997802734;;;7.4;46.3
65606;BME280;52276;48.906;2.384;2023-03-03T02:36:49;88103.997802734;;;7.4;46.2
65606;BME280;52276;48.906;2.384;2023-03-03T02:37:49;88103.997802734;;;7.3;46.2
65606;BME280;52276;48.906;2.384;2023-03-03T02:38:50;88103.997802734;;;7.3;46.3
65606;BME280;52276;48.906;2.384;2023-03-03T02:39:49;88103.997802734;;;7.3;46.2
65606;BME280;52276;48.906;2.384;2023-03-03T02:40:52;88103.997802734;;;7.3;46.2
65606;BME280;52276;48.906;2.384;2023-03-03T02:41:50;88103.997802734;;;7.3;46.3
65606;BME280;52276;48.906;2.384;2023-03-03T02:42:49;88103.997802734;;;7.3;46.4
65606;BME280;52276;48.906;2.384;2023-03-03T02:43:50;88103.997802734;;;7.3;46.3
65606;BME280;52276;48.906;2.384;2023-03-03T02:44:49;88103.997802734;;;7.3;46.4
65606;BME280;52276;48.906;2.384;2023-03-03T02:45:49;88103.997802734;;;7.3;46.5
65606;BME280;52276;48.906;2.384;2023-03-03T02:46:49;88103.997802734;;;7.3;46.5
65606;BME280;52276;48.906;2.384;2023-03-03T02:47:49;88103.997802734;;;7.3;46.4
65606;BME280;52276;48.906;2.384;2023-03-03T02:48:49;88103.997802734;;;7.2;46.5
65606;BME280;52276;48.906;2.384;2023-03-03T02:49:49;88103.997802734;;;7.2;46.4
65606;BME280;52276;48.906;2.384;2023-03-03T02:50:49;88103.997802734;;;7.3;46.5
65606;BME280;52276;48.906;2.384;2023-03-03T02:51:49;88103.997802734;;;7.2;46.6
65606;BME280;52276;48.906;2.384;2023-03-03T02:52:49;88103.997802734;;;7.3;46.7
65606;BME280;52276;48.906;2.384;2023-03-03T02:53:49;88103.997802734;;;7.2;46.7
65606;BME280;52276;48.906;2.384;2023-03-03T02:54:49;88103.997802734;;;7.2;46.8
65606;BME280;52276;48.906;2.384;2023-03-03T02:55:49;88103.997802734;;;7.2;46.8
65606;BME280;52276;48.906;2.384;2023-03-03T02:56:49;88103.997802734;;;7.2;46.7
65606;BME280;52276;48.906;2.384;2023-03-03T02:57:49;88103.997802734;;;7.2;46.8
65606;BME280;52276;48.906;2.384;2023-03-03T02:58:49;88103.997802734;;;7.2;46.9
65606;BME280;52276;48.906;2.384;2023-03-03T02:59:49;88103.997802734;;;7.2;46.9
65606;BME280;52276;48.906;2.384;2023-03-03T03:00:49;88103.997802734;;;7.2;46.9
65606;BME280;52276;48.906;2.384;2023-03-03T03:01:49;88103.997802734;;;7.2;47.1
65606;BME280;52276;48.906;2.384;2023-03-03T03:02:49;88103.997802734;;;7.2;46.9
65606;BME280;52276;48.906;2.384;2023-03-03T03:03:49;88103.997802734;;;7.2;47
65606;BME280;52276;48.906;2.384;2023-03-03T03:04:49;88103.997802734;;;7.2;47
65606;BME280;52276;48.906;2.384;2023-03-03T03:05:49;88103.997802734;;;7.2;47
65606;BME280;52276;48.906;2.384;2023-03-03T03:06:49;88103.997802734;;;7.2;46.3
65606;BME280;52276;48.906;2.384;2023-03-03T03:07:49;88103.997802734;;;7.2;47
65606;BME280;52276;48.906;2.384;2023-03-03T03:08:49;88103.997802734;;;7.2;47.1
65606;BME280;52276;48.906;2.384;2023-03-03T03:09:49;88103.997802734;;;7.2;47.1
65606;BME280;52276;48.906;2.384;2023-03-03T03:10:49;88103.997802734;;;7.2;47.1
65606;BME280;52276;48.906;2.384;2023-03-03T03:11:49;88103.997802734;;;7.1;47.1
65606;BME280;52276;48.906;2.384;2023-03-03T03:12:49;88103.997802734;;;7.1;47.2
65606;BME280;52276;48.906;2.384;2023-03-03T03:13:49;88103.997802734;;;7.1;47.2
65606;BME280;52276;48.906;2.384;2023-03-03T03:14:49;88103.997802734;;;7.1;47.3
65606;BME280;52276;48.906;2.384;2023-03-03T03:15:49;88103.997802734;;;7.1;47.3
65606;BME280;52276;48.906;2.384;2023-03-03T03:16:49;88103.997802734;;;7.1;47.3
65606;BME280;52276;48.906;2.384;2023-03-03T03:17:49;88103.997802734;;;7.1;47.4
65606;BME280;52276;48.906;2.384;2023-03-03T03:18:49;88103.997802734;;;7.1;47.4
65606;BME280;52276;48.906;2.384;2023-03-03T03:19:49;88103.997802734;;;7.1;47.5
65606;BME280;52276;48.906;2.384;2023-03-03T03:20:54;88103.997802734;;;7.1;47.4
65606;BME280;52276;48.906;2.384;2023-03-03T03:21:49;88103.997802734;;;7.1;47.5
65606;BME280;52276;48.906;2.384;2023-03-03T03:22:49;88103.997802734;;;7.1;47.4
65606;BME280;52276;48.906;2.384;2023-03-03T03:23:49;88103.997802734;;;7.1;47.4
65606;BME280;52276;48.906;2.384;2023-03-03T03:24:49;88103.997802734;;;7.1;47.5
65606;BME280;52276;48.906;2.384;2023-03-03T03:25:49;88103.997802734;;;7.1;47.6
65606;BME280;52276;48.906;2.384;2023-03-03T03:26:49;88103.997802734;;;7.1;45.8
65606;BME280;52276;48.906;2.384;2023-03-03T03:27:49;88103.997802734;;;7.1;47.6
65606;BME280;52276;48.906;2.384;2023-03-03T03:28:49;88103.997802734;;;7.1;46.8
65606;BME280;52276;48.906;2.384;2023-03-03T03:29:49;88103.997802734;;;7.1;47.5
65606;BME280;52276;48.906;2.384;2023-03-03T03:30:49;88103.997802734;;;7.1;47.6
65606;BME280;52276;48.906;2.384;2023-03-03T03:31:49;88103.997802734;;;7.1;47.6
65606;BME280;52276;48.906;2.384;2023-03-03T03:32:49;88103.997802734;;;7.1;47.7
65606;BME280;52276;48.906;2.384;2023-03-03T03:33:49;88103.997802734;;;7.1;47.7
65606;BME280;52276;48.906;2.384;2023-03-03T03:34:49;88103.997802734;;;7.1;47.7
65606;BME280;52276;48.906;2.384;2023-03-03T03:35:50;88103.997802734;;;7.1;47.8
65606;BME280;52276;48.906;2.384;2023-03-03T03:36:49;88103.997802734;;;7.1;47.7
65606;BME280;52276;48.906;2.384;2023-03-03T03:37:49;88103.997802734;;;7.1;47.8
65606;BME280;52276;48.906;2.384;2023-03-03T03:38:49;88103.997802734;;;7.1;47.8
65606;BME280;52276;48.906;2.384;2023-03-03T03:39:49;88103.997802734;;;7.1;47.9
65606;BME280;52276;48.906;2.384;2023-03-03T03:40:49;88103.997802734;;;7.1;47.9
65606;BME280;52276;48.906;2.384;2023-03-03T03:41:49;88103.997802734;;;7.1;48
65606;BME280;52276;48.906;2.384;2023-03-03T03:42:49;88103.997802734;;;7;47.9
65606;BME280;52276;48.906;2.384;2023-03-03T03:43:49;88103.997802734;;;7;48
65606;BME280;52276;48.906;2.384;2023-03-03T03:44:49;88103.997802734;;;7;48
65606;BME280;52276;48.906;2.384;2023-03-03T03:45:49;88103.997802734;;;7.1;48
65606;BME280;52276;48.906;2.384;2023-03-03T03:46:49;88103.997802734;;;7;48
65606;BME280;52276;48.906;2.384;2023-03-03T03:47:49;88103.997802734;;;7;48.1
65606;BME280;52276;48.906;2.384;2023-03-03T03:48:49;88103.997802734;;;7;48
65606;BME280;52276;48.906;2.384;2023-03-03T03:49:49;88103.997802734;;;7;48
65606;BME280;52276;48.906;2.384;2023-03-03T03:50:49;88103.997802734;;;7;46.1
65606;BME280;52276;48.906;2.384;2023-03-03T03:51:49;88103.997802734;;;7;48.2
65606;BME280;52276;48.906;2.384;2023-03-03T03:52:49;88103.997802734;;;7;48.2
65606;BME280;52276;48.906;2.384;2023-03-03T03:53:49;88103.997802734;;;7;48.2
65606;BME280;52276;48.906;2.384;2023-03-03T03:54:50;88103.997802734;;;7;48.2
65606;BME280;52276;48.906;2.384;2023-03-03T03:55:49;88103.997802734;;;7;48.2
65606;BME280;52276;48.906;2.384;2023-03-03T03:56:49;88103.997802734;;;7;48.3
65606;BME280;52276;48.906;2.384;2023-03-03T03:57:49;88103.997802734;;;7;48.3
65606;BME280;52276;48.906;2.384;2023-03-03T03:58:49;88103.997802734;;;7;48.3
65606;BME280;52276;48.906;2.384;2023-03-03T03:59:49;88103.997802734;;;7;48.3
65606;BME280;52276;48.906;2.384;2023-03-03T04:00:49;88103.997802734;;;7;48.5
65606;BME280;52276;48.906;2.384;2023-03-03T04:01:49;88103.997802734;;;7;48.4
65606;BME280;52276;48.906;2.384;2023-03-03T04:02:49;88103.997802734;;;7;48.5
65606;BME280;52276;48.906;2.384;2023-03-03T04:03:49;88103.997802734;;;6.9;48.5
65606;BME280;52276;48.906;2.384;2023-03-03T04:04:49;88103.997802734;;;6.9;48.6
65606;BME280;52276;48.906;2.384;2023-03-03T04:05:51;88103.997802734;;;6.9;48.7
65606;BME280;52276;48.906;2.384;2023-03-03T04:06:49;88103.997802734;;;6.9;48.7
65606;BME280;52276;48.906;2.384;2023-03-03T04:07:49;88103.997802734;;;6.9;48.6
65606;BME280;52276;48.906;2.384;2023-03-03T04:08:49;88103.997802734;;;6.9;48.7
65606;BME280;52276;48.906;2.384;2023-03-03T04:09:49;88103.997802734;;;6.9;48.8
65606;BME280;52276;48.906;2.384;2023-03-03T04:10:49;88103.997802734;;;6.9;48.8
65606;BME280;52276;48.906;2.384;2023-03-03T04:11:49;88103.997802734;;;6.9;48.8
65606;BME280;52276;48.906;2.384;2023-03-03T04:12:49;88103.997802734;;;6.9;48.8
65606;BME280;52276;48.906;2.384;2023-03-03T04:13:49;88103.997802734;;;6.8;48.8
65606;BME280;52276;48.906;2.384;2023-03-03T04:14:49;88103.997802734;;;6.8;48.7
65606;BME280;52276;48.906;2.384;2023-03-03T04:15:49;88103.997802734;;;6.9;48.9
65606;BME280;52276;48.906;2.384;2023-03-03T04:16:49;88103.997802734;;;6.8;48.9
65606;BME280;52276;48.906;2.384;2023-03-03T04:17:49;88103.997802734;;;6.8;48.9
65606;BME280;52276;48.906;2.384;2023-03-03T04:18:49;88103.997802734;;;6.8;49
65606;BME280;52276;48.906;2.384;2023-03-03T04:19:51;88103.997802734;;;6.8;49
65606;BME280;52276;48.906;2.384;2023-03-03T04:20:49;88103.997802734;;;6.8;49
65606;BME280;52276;48.906;2.384;2023-03-03T04:21:49;88103.997802734;;;6.8;49.2
65606;BME280;52276;48.906;2.384;2023-03-03T04:22:49;88103.997802734;;;6.8;49.2
65606;BME280;52276;48.906;2.384;2023-03-03T04:23:49;88103.997802734;;;6.8;49.2
65606;BME280;52276;48.906;2.384;2023-03-03T04:24:49;88103.997802734;;;6.8;49.3
65606;BME280;52276;48.906;2.384;2023-03-03T04:25:49;88103.997802734;;;6.8;49.3
65606;BME280;52276;48.906;2.384;2023-03-03T04:26:49;88103.997802734;;;6.8;49.3
65606;BME280;52276;48.906;2.384;2023-03-03T04:27:49;88103.997802734;;;6.8;49.3
65606;BME280;52276;48.906;2.384;2023-03-03T04:28:49;88103.997802734;;;6.8;49.4
65606;BME280;52276;48.906;2.384;2023-03-03T04:29:49;88103.997802734;;;6.8;49.4
65606;BME280;52276;48.906;2.384;2023-03-03T04:30:49;88103.997802734;;;6.8;49.5
65606;BME280;52276;48.906;2.384;2023-03-03T04:31:49;88103.997802734;;;6.8;49.6
65606;BME280;52276;48.906;2.384;2023-03-03T04:32:49;88103.997802734;;;6.7;49.5
65606;BME280;52276;48.906;2.384;2023-03-03T04:33:49;88103.997802734;;;6.8;49.6
65606;BME280;52276;48.906;2.384;2023-03-03T04:34:49;88103.997802734;;;6.7;48.6
65606;BME280;52276;48.906;2.384;2023-03-03T04:35:49;88103.997802734;;;6.7;49.6
65606;BME280;52276;48.906;2.384;2023-03-03T04:36:49;88103.997802734;;;6.7;49.7
65606;BME280;52276;48.906;2.384;2023-03-03T04:37:49;88103.997802734;;;6.7;49.8
65606;BME280;52276;48.906;2.384;2023-03-03T04:38:49;88103.997802734;;;6.7;49.8
65606;BME280;52276;48.906;2.384;2023-03-03T04:39:49;88103.997802734;;;6.7;49.8
65606;BME280;52276;48.906;2.384;2023-03-03T04:40:49;88103.997802734;;;6.7;49.8
65606;BME280;52276;48.906;2.384;2023-03-03T04:41:49;88103.997802734;;;6.7;49.9
65606;BME280;52276;48.906;2.384;2023-03-03T04:42:49;88103.997802734;;;6.7;50.1
65606;BME280;52276;48.906;2.384;2023-03-03T04:43:49;88103.997802734;;;6.6;49.9
65606;BME280;52276;48.906;2.384;2023-03-03T04:44:50;88103.997802734;;;6.6;50
65606;BME280;52276;48.906;2.384;2023-03-03T04:45:49;88103.997802734;;;6.7;50
65606;BME280;52276;48.906;2.384;2023-03-03T04:46:49;88103.997802734;;;6.6;50
65606;BME280;52276;48.906;2.384;2023-03-03T04:47:49;88103.997802734;;;6.6;50
65606;BME280;52276;48.906;2.384;2023-03-03T04:48:49;88103.997802734;;;6.6;50.1
65606;BME280;52276;48.906;2.384;2023-03-03T04:49:49;88103.997802734;;;6.6;50.2
65606;BME280;52276;48.906;2.384;2023-03-03T04:50:49;88103.997802734;;;6.6;50.1
65606;BME280;52276;48.906;2.384;2023-03-03T04:51:49;88103.997802734;;;6.7;50.2
65606;BME280;52276;48.906;2.384;2023-03-03T04:52:49;88103.997802734;;;6.6;50.2
65606;BME280;52276;48.906;2.384;2023-03-03T04:53:49;88103.997802734;;;6.6;50.1
65606;BME280;52276;48.906;2.384;2023-03-03T04:54:49;88103.997802734;;;6.6;50.2
65606;BME280;52276;48.906;2.384;2023-03-03T04:55:49;88103.997802734;;;6.6;50.4
65606;BME280;52276;48.906;2.384;2023-03-03T04:56:49;88103.997802734;;;6.6;49
65606;BME280;52276;48.906;2.384;2023-03-03T04:57:49;88103.997802734;;;6.6;50.4
65606;BME280;52276;48.906;2.384;2023-03-03T04:58:49;88103.997802734;;;6.6;48.7
65606;BME280;52276;48.906;2.384;2023-03-03T04:59:49;88103.997802734;;;6.6;50.3
65606;BME280;52276;48.906;2.384;2023-03-03T05:00:52;88103.997802734;;;6.6;50.3
65606;BME280;52276;48.906;2.384;2023-03-03T05:01:49;88103.997802734;;;6.6;50.3
65606;BME280;52276;48.906;2.384;2023-03-03T05:02:49;88103.997802734;;;6.6;50.3
65606;BME280;52276;48.906;2.384;2023-03-03T05:03:49;88103.997802734;;;6.6;50.5